createdAt,value
2022-11-12T00:05:12.192Z,10.57
2022-11-12T00:10:32.894Z,10.13
2022-11-12T00:15:53.398Z,9.27
2022-11-12T00:21:13.839Z,9.07
2022-11-12T00:26:34.050Z,8.55
2022-11-12T00:31:54.235Z,8.15
2022-11-12T00:37:14.418Z,8.52
2022-11-12T00:42:34.601Z,7.65
2022-11-12T00:47:56.647Z,7.30
2022-11-12T00:53:17.197Z,7.88
2022-11-12T00:58:37.324Z,8.43
2022-11-12T01:03:59.269Z,8.32
2022-11-12T01:09:19.987Z,7.47
2022-11-12T01:14:40.225Z,7.45
2022-11-12T01:20:00.365Z,7.78
2022-11-12T01:25:20.687Z,7.55
2022-11-12T01:30:40.981Z,7.57
2022-11-12T01:36:01.224Z,6.43
2022-11-12T01:41:28.468Z,6.32
2022-11-12T01:47:06.944Z,6.82
2022-11-12T01:52:37.615Z,8.13
2022-11-12T01:58:06.850Z,7.65
2022-11-12T02:03:27.043Z,7.68
2022-11-12T02:08:49.303Z,7.20
2022-11-12T02:14:09.458Z,7.88
2022-11-12T02:19:29.698Z,7.50
2022-11-12T02:24:49.777Z,8.05
2022-11-12T02:30:10.318Z,7.43
2022-11-12T02:35:31.341Z,8.30
2022-11-12T02:40:52.073Z,7.63
2022-11-12T02:46:12.849Z,8.40
2022-11-12T02:51:34.227Z,8.52
2022-11-12T02:56:54.413Z,8.75
2022-11-12T03:02:14.620Z,8.20
2022-11-12T03:07:35.425Z,8.00
2022-11-12T03:13:00.414Z,9.25
2022-11-12T03:18:20.899Z,8.13
2022-11-12T03:23:41.132Z,7.30
2022-11-12T03:29:01.284Z,8.80
2022-11-12T03:34:21.350Z,7.72
2022-11-12T03:39:41.541Z,6.95
2022-11-12T03:45:01.913Z,7.15
2022-11-12T03:50:25.575Z,8.45
2022-11-12T03:55:46.421Z,7.95
2022-11-12T04:01:06.708Z,8.27
2022-11-12T04:06:45.426Z,7.68
2022-11-12T04:12:25.680Z,8.23
2022-11-12T04:18:04.884Z,7.50
2022-11-12T04:23:25.533Z,8.60
2022-11-12T04:29:04.772Z,8.23
2022-11-12T04:34:31.642Z,7.72
2022-11-12T04:39:53.255Z,7.20
2022-11-12T04:45:13.800Z,7.38
2022-11-12T04:50:34.362Z,6.82
2022-11-12T04:55:57.269Z,7.10
2022-11-12T05:01:17.719Z,8.40
2022-11-12T05:06:53.854Z,9.25
2022-11-12T05:12:14.493Z,8.07
2022-11-12T05:17:34.734Z,8.32
2022-11-12T05:23:06.050Z,7.20
2022-11-12T05:28:27.504Z,8.35
2022-11-12T05:33:47.898Z,8.40
2022-11-12T05:39:08.215Z,8.98
2022-11-12T05:44:28.494Z,11.30
2022-11-12T05:49:48.678Z,10.60
2022-11-12T05:55:09.184Z,9.95
2022-11-12T06:00:29.802Z,8.77
2022-11-12T06:05:50.261Z,6.65
2022-11-12T06:11:10.869Z,7.65
2022-11-12T06:16:31.273Z,7.57
2022-11-12T06:21:51.421Z,7.30
2022-11-12T06:27:11.996Z,8.25
2022-11-12T06:32:32.133Z,7.57
2022-11-12T06:37:52.322Z,10.02
2022-11-12T06:43:12.437Z,12.05
2022-11-12T06:48:32.641Z,10.80
2022-11-12T06:53:55.125Z,10.23
2022-11-12T06:59:16.481Z,9.40
2022-11-12T07:04:36.771Z,9.98
2022-11-12T07:09:56.858Z,10.80
2022-11-12T07:15:17.242Z,10.30
2022-11-12T07:20:37.328Z,11.85
2022-11-12T07:26:08.505Z,9.63
2022-11-12T07:31:28.777Z,7.30
2022-11-12T07:36:51.469Z,6.60
2022-11-12T07:42:11.608Z,7.05
2022-11-12T07:47:31.939Z,6.65
2022-11-12T07:52:52.042Z,6.88
2022-11-12T07:58:12.174Z,6.00
2022-11-12T08:03:32.338Z,6.05
2022-11-12T08:08:56.525Z,6.18
2022-11-12T08:14:16.972Z,5.88
2022-11-12T08:19:37.367Z,6.70
2022-11-12T08:24:57.526Z,6.97
2022-11-12T08:30:17.836Z,7.88
2022-11-12T08:35:38.251Z,5.00
2022-11-12T08:41:03.211Z,7.30
2022-11-12T08:46:23.839Z,6.22
2022-11-12T08:51:44.323Z,6.63
2022-11-12T08:57:04.798Z,8.27
2022-11-12T09:02:24.883Z,11.15
2022-11-12T09:07:50.353Z,6.20
2022-11-12T09:13:11.799Z,5.57
2022-11-12T09:18:33.226Z,6.60
2022-11-12T09:23:53.875Z,5.88
2022-11-12T09:29:14.170Z,6.22
2022-11-12T09:34:34.453Z,6.05
2022-11-12T09:39:54.510Z,6.25
2022-11-12T09:45:32.668Z,8.57
2022-11-12T09:51:01.150Z,7.50
2022-11-12T09:56:21.934Z,8.30
2022-11-12T10:01:53.875Z,8.85
2022-11-12T10:07:49.401Z,9.85
2022-11-12T10:13:29.477Z,9.50
2022-11-12T10:19:05.434Z,9.25
2022-11-12T10:24:29.486Z,11.38
2022-11-12T10:29:57.451Z,11.27
2022-11-12T10:35:20.765Z,11.18
2022-11-12T10:40:42.492Z,12.02
2022-11-12T10:46:20.365Z,10.45
2022-11-12T10:51:41.130Z,8.52
2022-11-12T10:57:24.395Z,9.55
2022-11-12T11:03:23.961Z,9.65
2022-11-12T11:08:50.122Z,8.18
2022-11-12T11:14:22.271Z,8.30
2022-11-12T11:19:43.306Z,9.23
2022-11-12T11:25:42.090Z,8.98
2022-11-12T11:31:25.022Z,10.48
2022-11-12T11:36:55.283Z,11.00
2022-11-12T11:42:29.317Z,10.93
2022-11-12T11:48:08.162Z,9.35
2022-11-12T11:53:39.892Z,9.23
2022-11-12T11:59:27.817Z,8.95
2022-11-12T12:05:15.510Z,8.57
2022-11-12T12:11:08.258Z,7.70
2022-11-12T12:16:50.572Z,8.80
2022-11-12T12:22:15.506Z,8.85
2022-11-12T12:27:46.023Z,11.88
2022-11-12T12:33:34.403Z,9.23
2022-11-12T12:39:03.563Z,7.15
2022-11-12T12:44:46.682Z,8.65
2022-11-12T12:50:13.024Z,9.02
2022-11-12T12:55:34.994Z,9.73
2022-11-12T13:01:01.607Z,8.45
2022-11-12T13:06:23.671Z,7.55
2022-11-12T13:12:02.892Z,7.88
2022-11-12T13:17:44.272Z,11.65
2022-11-12T13:23:09.814Z,9.57
2022-11-12T13:28:30.461Z,9.18
2022-11-12T13:33:51.039Z,13.07
2022-11-12T13:39:18.943Z,13.70
2022-11-12T13:44:39.582Z,14.75
2022-11-12T13:50:01.696Z,12.30
2022-11-12T13:55:23.369Z,10.65
2022-11-12T14:01:01.332Z,8.05
2022-11-12T14:06:42.608Z,10.13
2022-11-12T14:12:36.566Z,9.80
2022-11-12T14:18:10.480Z,7.00
2022-11-12T14:23:30.682Z,7.28
2022-11-12T14:28:56.496Z,6.50
2022-11-12T14:34:31.362Z,6.43
2022-11-12T14:39:51.738Z,11.60
2022-11-12T14:45:17.428Z,8.80
2022-11-12T14:50:41.164Z,10.55
2022-11-12T14:56:05.506Z,10.32
2022-11-12T15:02:08.855Z,7.10
2022-11-12T15:07:50.147Z,11.47
2022-11-12T15:13:19.700Z,8.98
2022-11-12T15:18:40.404Z,8.48
2022-11-12T15:24:15.297Z,9.73
2022-11-12T15:34:57.067Z,9.32
2022-11-12T15:40:19.763Z,8.25
2022-11-12T15:45:40.233Z,8.52
2022-11-12T15:51:00.502Z,9.73
2022-11-12T15:56:22.186Z,9.40
2022-11-12T16:01:43.109Z,9.32
2022-11-12T16:07:06.767Z,11.15
2022-11-12T16:12:27.616Z,10.65
2022-11-12T16:17:48.287Z,9.52
2022-11-12T16:23:08.797Z,10.35
2022-11-12T16:28:28.994Z,10.13
2022-11-12T16:33:49.203Z,11.82
2022-11-12T16:39:14.330Z,10.23
2022-11-12T16:44:34.746Z,9.35
2022-11-12T16:49:55.053Z,11.43
2022-11-12T16:55:16.161Z,11.82
2022-11-12T17:00:36.195Z,11.65
2022-11-12T17:05:56.488Z,11.52
2022-11-12T17:11:17.147Z,11.57
2022-11-12T17:16:37.522Z,10.50
2022-11-12T17:21:57.742Z,11.45
2022-11-12T17:27:17.958Z,11.07
2022-11-12T17:32:38.070Z,11.60
2022-11-12T17:37:59.412Z,12.00
2022-11-12T17:43:19.851Z,12.32
2022-11-12T17:48:40.755Z,14.25
2022-11-12T17:54:01.021Z,15.68
2022-11-12T17:59:21.455Z,17.67
2022-11-12T18:04:42.402Z,19.90
2022-11-12T18:10:02.910Z,26.17
2022-11-12T18:15:23.224Z,21.10
2022-11-12T18:20:43.434Z,18.17
2022-11-12T18:26:04.097Z,18.52
2022-11-12T18:31:26.299Z,19.48
2022-11-12T18:36:53.067Z,18.02
2022-11-12T18:42:13.588Z,21.63
2022-11-12T18:47:33.929Z,19.02
2022-11-12T18:52:54.139Z,14.20
2022-11-12T18:58:14.750Z,15.57
2022-11-12T19:03:36.783Z,13.68
2022-11-12T19:09:01.045Z,12.60
2022-11-12T19:14:23.626Z,11.70
2022-11-12T19:19:43.893Z,13.50
2022-11-12T19:25:04.363Z,10.80
2022-11-12T19:30:24.537Z,11.98
2022-11-12T19:35:44.823Z,9.27
2022-11-12T19:41:06.592Z,9.68
2022-11-12T19:46:26.918Z,7.45
2022-11-12T19:51:47.239Z,7.22
2022-11-12T19:57:07.441Z,8.82
2022-11-12T20:02:27.675Z,13.43
2022-11-12T20:07:49.001Z,13.73
2022-11-12T20:13:09.365Z,12.85
2022-11-12T20:18:30.169Z,13.07
2022-11-12T20:23:50.898Z,12.70
2022-11-12T20:29:11.154Z,12.00
2022-11-12T20:34:31.332Z,10.23
2022-11-12T20:39:51.461Z,11.93
2022-11-12T20:45:12.565Z,15.10
2022-11-12T20:50:32.930Z,17.27
2022-11-12T20:55:53.088Z,15.43
2022-11-12T21:01:15.782Z,15.15
2022-11-12T21:06:36.370Z,16.65
2022-11-12T21:11:56.556Z,16.70
2022-11-12T21:17:16.851Z,17.20
2022-11-12T21:22:36.887Z,16.10
2022-11-12T21:27:57.745Z,10.88
2022-11-12T21:33:18.196Z,9.07
2022-11-12T21:38:38.742Z,8.70
2022-11-12T21:43:59.065Z,9.35
2022-11-12T21:49:19.598Z,9.52
2022-11-12T21:54:39.945Z,11.70
2022-11-12T22:00:19.533Z,7.85
2022-11-12T22:05:40.428Z,6.70
2022-11-12T22:11:02.580Z,13.18
2022-11-12T22:16:26.002Z,11.52
2022-11-12T22:21:46.179Z,12.45
2022-11-12T22:27:06.403Z,12.80
2022-11-12T22:32:26.598Z,13.13
2022-11-12T22:37:46.682Z,13.35
2022-11-12T22:43:06.885Z,16.95
2022-11-12T22:48:27.367Z,10.95
2022-11-12T22:53:52.411Z,11.40
2022-11-12T23:04:33.293Z,12.48
2022-11-12T23:09:53.674Z,13.68
2022-11-12T23:15:13.789Z,10.13
2022-11-12T23:20:34.041Z,8.93
2022-11-12T23:25:54.415Z,7.60
2022-11-12T23:31:20.695Z,7.15
2022-11-12T23:36:41.138Z,10.77
2022-11-12T23:42:01.257Z,11.35
2022-11-12T23:47:21.561Z,10.55
2022-11-12T23:52:41.736Z,9.23
2022-11-12T23:58:02.103Z,7.65
